createdAt,value
2018-05-17T00:00:57.069Z,0.00
2018-05-17T00:01:57.062Z,0.00
2018-05-17T00:02:57.055Z,0.00
2018-05-17T00:03:57.053Z,0.00
2018-05-17T00:04:57.050Z,0.00
2018-05-17T00:05:57.049Z,0.00
2018-05-17T00:06:57.050Z,0.00
2018-05-17T00:07:57.041Z,0.00
2018-05-17T00:08:57.038Z,0.00
2018-05-17T00:09:57.030Z,0.00
2018-05-17T00:10:57.025Z,0.00
2018-05-17T00:11:57.021Z,0.00
2018-05-17T00:12:57.018Z,0.00
2018-05-17T00:13:57.019Z,0.00
2018-05-17T00:14:57.015Z,0.00
2018-05-17T00:15:57.007Z,0.00
2018-05-17T00:16:57.005Z,0.00
2018-05-17T00:17:57.003Z,0.00
2018-05-17T00:18:57.005Z,0.00
2018-05-17T00:19:56.995Z,0.00
2018-05-17T00:20:57.064Z,0.00
2018-05-17T00:21:56.982Z,0.00
2018-05-17T00:22:56.978Z,0.00
2018-05-17T00:23:56.974Z,0.00
2018-05-17T00:24:56.969Z,0.00
2018-05-17T00:25:56.971Z,0.00
2018-05-17T00:26:56.966Z,0.00
2018-05-17T00:27:56.964Z,0.00
2018-05-17T00:28:56.961Z,0.00
2018-05-17T00:29:56.952Z,0.00
2018-05-17T00:30:56.946Z,0.00
2018-05-17T00:31:56.948Z,0.00
2018-05-17T00:32:56.946Z,0.00
2018-05-17T00:33:56.934Z,0.00
2018-05-17T00:34:56.932Z,0.00
2018-05-17T00:35:56.924Z,0.00
2018-05-17T00:36:56.921Z,0.00
2018-05-17T00:37:56.921Z,0.00
2018-05-17T00:38:56.917Z,0.00
2018-05-17T00:39:56.913Z,0.00
2018-05-17T00:40:56.909Z,0.00
2018-05-17T00:41:56.969Z,0.00
2018-05-17T00:42:56.899Z,0.00
2018-05-17T00:43:56.893Z,0.00
2018-05-17T00:44:56.890Z,0.00
2018-05-17T00:45:56.895Z,0.00
2018-05-17T00:46:56.885Z,0.00
2018-05-17T00:47:56.876Z,0.00
2018-05-17T00:48:56.872Z,0.00
2018-05-17T00:49:56.873Z,0.00
2018-05-17T00:50:56.868Z,0.00
2018-05-17T00:51:56.862Z,0.00
2018-05-17T00:52:56.859Z,0.00
2018-05-17T00:53:56.866Z,0.00
2018-05-17T00:54:56.848Z,0.00
2018-05-17T00:55:56.850Z,0.00
2018-05-17T00:56:56.842Z,0.00
2018-05-17T00:57:56.833Z,0.00
2018-05-17T00:58:56.828Z,0.00
2018-05-17T00:59:56.832Z,0.00
2018-05-17T01:00:56.820Z,0.00
2018-05-17T01:01:56.820Z,0.00
2018-05-17T01:02:56.815Z,0.00
2018-05-17T01:03:56.806Z,0.00
2018-05-17T01:04:56.802Z,0.00
2018-05-17T01:05:56.802Z,0.00
2018-05-17T01:06:56.797Z,0.00
2018-05-17T01:07:56.794Z,0.00
2018-05-17T01:08:56.790Z,0.00
2018-05-17T01:09:56.780Z,0.00
2018-05-17T01:10:56.775Z,0.00
2018-05-17T01:11:56.771Z,0.00
2018-05-17T01:12:56.766Z,0.00
2018-05-17T01:13:56.767Z,0.00
2018-05-17T01:14:56.761Z,0.00
2018-05-17T01:15:56.756Z,0.00
2018-05-17T01:16:56.751Z,0.00
2018-05-17T01:17:56.743Z,0.00
2018-05-17T01:18:56.738Z,0.00
2018-05-17T01:19:56.738Z,0.00
2018-05-17T01:20:56.734Z,0.00
2018-05-17T01:21:56.725Z,0.00
2018-05-17T01:22:56.720Z,0.00
2018-05-17T01:23:56.715Z,0.00
2018-05-17T01:24:56.711Z,0.00
2018-05-17T01:25:56.710Z,0.00
2018-05-17T01:26:56.706Z,0.00
2018-05-17T01:27:56.702Z,0.00
2018-05-17T01:28:56.697Z,0.00
2018-05-17T01:29:56.687Z,0.00
2018-05-17T01:30:56.682Z,0.00
2018-05-17T01:31:56.678Z,0.00
2018-05-17T01:32:56.673Z,0.00
2018-05-17T01:33:56.674Z,0.00
2018-05-17T01:34:56.764Z,0.00
2018-05-17T01:35:56.658Z,0.00
2018-05-17T01:36:56.654Z,0.00
2018-05-17T01:37:56.654Z,0.00
2018-05-17T01:38:56.651Z,0.00
2018-05-17T01:39:56.644Z,0.00
2018-05-17T01:40:56.640Z,0.00
2018-05-17T01:41:56.632Z,0.00
2018-05-17T01:42:56.722Z,0.00
2018-05-17T01:43:56.621Z,0.00
2018-05-17T01:44:56.617Z,0.00
2018-05-17T01:45:56.616Z,0.00
2018-05-17T01:46:56.615Z,0.00
2018-05-17T01:47:56.610Z,0.00
2018-05-17T01:48:56.601Z,0.00
2018-05-17T01:49:56.592Z,0.00
2018-05-17T01:50:56.587Z,0.00
2018-05-17T01:51:56.590Z,0.00
2018-05-17T01:52:56.588Z,0.00
2018-05-17T01:53:56.574Z,0.00
2018-05-17T01:54:56.567Z,0.00
2018-05-17T01:55:56.566Z,0.00
2018-05-17T01:56:56.558Z,0.00
2018-05-17T01:57:56.560Z,0.00
2018-05-17T01:58:56.552Z,0.00
2018-05-17T01:59:56.547Z,0.00
2018-05-17T02:00:56.543Z,0.00
2018-05-17T02:01:56.534Z,0.00
2018-05-17T02:02:56.529Z,0.00
2018-05-17T02:03:56.525Z,0.00
2018-05-17T02:04:56.520Z,0.00
2018-05-17T02:05:56.520Z,0.00
2018-05-17T02:06:56.515Z,0.00
2018-05-17T02:07:56.506Z,0.00
2018-05-17T02:08:56.500Z,0.00
2018-05-17T02:09:56.501Z,0.00
2018-05-17T02:10:56.494Z,0.00
2018-05-17T02:11:56.491Z,0.00
2018-05-17T02:12:56.485Z,0.00
2018-05-17T02:13:56.476Z,0.00
2018-05-17T02:14:56.470Z,0.00
2018-05-17T02:15:56.466Z,0.00
2018-05-17T02:16:56.461Z,0.00
2018-05-17T02:17:56.460Z,0.00
2018-05-17T02:18:56.457Z,0.00
2018-05-17T02:19:56.487Z,0.00
2018-05-17T02:20:56.451Z,0.00
2018-05-17T02:21:56.437Z,0.00
2018-05-17T02:22:56.439Z,0.00
2018-05-17T02:23:56.432Z,0.00
2018-05-17T02:24:56.428Z,0.00
2018-05-17T02:25:56.418Z,0.00
2018-05-17T02:26:56.413Z,0.00
2018-05-17T02:27:56.408Z,0.00
2018-05-17T02:28:56.404Z,0.00
2018-05-17T02:29:56.403Z,0.00
2018-05-17T02:30:56.401Z,0.00
2018-05-17T02:31:56.393Z,0.00
2018-05-17T02:32:56.390Z,0.00
2018-05-17T02:33:56.380Z,0.00
2018-05-17T02:34:56.378Z,0.00
2018-05-17T02:35:56.373Z,0.00
2018-05-17T02:36:56.365Z,0.00
2018-05-17T02:37:56.366Z,0.00
2018-05-17T02:38:56.360Z,0.00
2018-05-17T02:39:56.353Z,0.00
2018-05-17T02:40:56.349Z,0.00
2018-05-17T02:41:56.348Z,0.00
2018-05-17T02:42:56.358Z,0.00
2018-05-17T02:43:56.342Z,0.00
2018-05-17T02:44:56.331Z,0.00
2018-05-17T02:45:56.322Z,0.00
2018-05-17T02:46:56.319Z,0.00
2018-05-17T02:47:56.313Z,0.00
2018-05-17T02:48:56.307Z,0.00
2018-05-17T02:49:56.307Z,0.00
2018-05-17T02:50:56.302Z,0.00
2018-05-17T02:51:56.299Z,0.00
2018-05-17T02:52:56.296Z,0.00
2018-05-17T02:53:56.287Z,0.00
2018-05-17T02:54:56.278Z,0.00
2018-05-17T02:55:56.279Z,0.00
2018-05-17T02:56:56.273Z,0.00
2018-05-17T02:57:56.265Z,0.00
2018-05-17T02:58:56.260Z,0.00
2018-05-17T02:59:56.255Z,0.00
2018-05-17T03:00:56.251Z,0.00
2018-05-17T03:01:56.258Z,0.00
2018-05-17T03:02:56.246Z,0.00
2018-05-17T03:03:56.239Z,0.00
2018-05-17T03:04:56.239Z,4.00
2018-05-17T03:05:56.230Z,4.00
2018-05-17T03:06:56.226Z,4.00
2018-05-17T03:07:56.216Z,4.00
2018-05-17T03:08:56.216Z,0.00
2018-05-17T03:09:56.212Z,4.00
2018-05-17T03:10:56.204Z,4.00
2018-05-17T03:11:56.196Z,8.00
2018-05-17T03:12:56.198Z,4.00
2018-05-17T03:13:56.191Z,8.00
2018-05-17T03:14:56.185Z,4.00
2018-05-17T03:15:56.182Z,8.00
2018-05-17T03:16:56.178Z,8.00
2018-05-17T03:17:56.168Z,8.00
2018-05-17T03:18:56.163Z,8.00
2018-05-17T03:19:56.157Z,16.00
2018-05-17T03:20:56.153Z,16.00
2018-05-17T03:21:56.152Z,20.00
2018-05-17T03:22:56.148Z,24.00
2018-05-17T03:23:56.141Z,24.00
2018-05-17T03:24:56.137Z,28.00
2018-05-17T03:25:56.129Z,32.00
2018-05-17T03:26:56.122Z,36.00
2018-05-17T03:27:56.122Z,40.00
2018-05-17T03:28:56.121Z,44.00
2018-05-17T03:29:56.107Z,48.00
2018-05-17T03:30:56.105Z,52.00
2018-05-17T03:31:56.103Z,56.00
2018-05-17T03:32:56.093Z,64.00
2018-05-17T03:33:56.092Z,72.00
2018-05-17T03:34:56.093Z,80.00
2018-05-17T03:35:56.082Z,84.00
2018-05-17T03:36:56.078Z,84.00
2018-05-17T03:37:56.068Z,88.00
2018-05-17T03:38:56.065Z,100.00
2018-05-17T03:39:56.057Z,108.00
2018-05-17T03:40:56.051Z,120.00
2018-05-17T03:41:56.052Z,128.00
2018-05-17T03:42:56.046Z,144.00
2018-05-17T03:43:56.037Z,148.00
2018-05-17T03:44:56.034Z,168.00
2018-05-17T03:45:56.031Z,184.00
2018-05-17T03:46:56.026Z,196.00
2018-05-17T03:47:56.022Z,204.00
2018-05-17T03:48:56.019Z,200.00
2018-05-17T03:49:56.011Z,200.00
2018-05-17T03:50:56.001Z,232.00
2018-05-17T03:51:55.996Z,260.00
2018-05-17T03:52:55.991Z,272.00
2018-05-17T03:53:55.992Z,292.00
2018-05-17T03:54:55.985Z,300.00
2018-05-17T03:55:55.980Z,328.00
2018-05-17T03:56:55.976Z,344.00
2018-05-17T03:57:55.966Z,348.00
2018-05-17T03:58:55.960Z,356.00
2018-05-17T03:59:55.959Z,352.00
2018-05-17T04:00:55.954Z,372.00
2018-05-17T04:01:55.945Z,392.00
2018-05-17T04:02:55.940Z,388.00
2018-05-17T04:03:55.936Z,368.00
2018-05-17T04:04:55.930Z,368.00
2018-05-17T04:05:55.930Z,412.00
2018-05-17T04:06:55.924Z,452.00
2018-05-17T04:07:55.919Z,456.00
2018-05-17T04:08:55.913Z,444.00
2018-05-17T04:09:55.904Z,496.00
2018-05-17T04:10:55.899Z,552.00
2018-05-17T04:11:55.893Z,556.00
2018-05-17T04:12:55.889Z,560.00
2018-05-17T04:13:55.940Z,556.00
2018-05-17T04:14:55.883Z,560.00
2018-05-17T04:15:55.876Z,580.00
2018-05-17T04:16:55.869Z,592.00
2018-05-17T04:17:55.930Z,616.00
2018-05-17T04:18:55.863Z,684.00
2018-05-17T04:19:55.857Z,712.00
2018-05-17T04:20:55.854Z,720.00
2018-05-17T04:21:55.844Z,740.00
2018-05-17T04:22:55.838Z,784.00
2018-05-17T04:23:55.833Z,712.00
2018-05-17T04:24:55.828Z,732.00
2018-05-17T04:25:55.832Z,824.00
2018-05-17T04:26:55.824Z,864.00
2018-05-17T04:27:55.821Z,932.00
2018-05-17T04:28:55.815Z,1016.00
2018-05-17T04:29:55.806Z,1092.00
2018-05-17T04:30:55.799Z,1068.00
2018-05-17T04:31:55.800Z,1100.00
2018-05-17T04:32:55.795Z,1084.00
2018-05-17T04:33:55.786Z,1148.00
2018-05-17T04:34:55.779Z,1232.00
2018-05-17T04:35:55.775Z,1408.00
2018-05-17T04:36:55.770Z,1604.00
2018-05-17T04:37:55.770Z,1412.00
2018-05-17T04:38:55.765Z,1228.00
2018-05-17T04:39:55.760Z,1308.00
2018-05-17T04:40:55.756Z,1472.00
2018-05-17T04:41:55.747Z,1508.00
2018-05-17T04:42:55.742Z,1688.00
2018-05-17T04:43:55.738Z,1728.00
2018-05-17T04:44:55.732Z,1912.00
2018-05-17T04:45:55.734Z,1784.00
2018-05-17T04:46:55.735Z,1680.00
2018-05-17T04:47:55.720Z,1532.00
2018-05-17T04:48:55.714Z,1528.00
2018-05-17T04:49:55.715Z,1480.00
2018-05-17T04:50:55.710Z,1484.00
2018-05-17T04:51:55.704Z,1760.00
2018-05-17T04:52:55.699Z,2228.00
2018-05-17T04:53:55.691Z,2540.00
2018-05-17T04:54:55.684Z,2616.00
2018-05-17T04:55:55.682Z,2640.00
2018-05-17T04:56:55.677Z,2412.00
2018-05-17T04:57:55.677Z,2104.00
2018-05-17T04:58:55.672Z,2240.00
2018-05-17T04:59:55.668Z,2256.00
2018-05-17T05:00:55.665Z,2220.00
2018-05-17T05:01:55.656Z,2312.00
2018-05-17T05:02:55.688Z,2320.00
2018-05-17T05:03:55.651Z,2368.00
2018-05-17T05:04:55.651Z,2704.00
2018-05-17T05:05:55.638Z,3400.00
2018-05-17T05:06:55.632Z,3624.00
2018-05-17T05:07:55.628Z,3420.00
2018-05-17T05:08:55.624Z,3428.00
2018-05-17T05:09:55.624Z,3524.00
2018-05-17T05:10:55.619Z,3804.00
2018-05-17T05:11:55.615Z,4148.00
2018-05-17T05:12:55.611Z,4160.00
2018-05-17T05:13:55.603Z,3808.00
2018-05-17T05:14:55.598Z,3440.00
2018-05-17T05:15:55.594Z,3276.00
2018-05-17T05:16:55.590Z,3192.00
2018-05-17T05:17:55.591Z,3260.00
2018-05-17T05:18:55.586Z,3608.00
2018-05-17T05:19:55.578Z,4192.00
2018-05-17T05:20:55.574Z,4740.00
2018-05-17T05:21:55.576Z,4896.00
2018-05-17T05:22:55.571Z,4928.00
2018-05-17T05:23:55.566Z,5340.00
2018-05-17T05:24:55.562Z,5008.00
2018-05-17T05:25:55.554Z,4796.00
2018-05-17T05:26:55.550Z,4876.00
2018-05-17T05:27:55.546Z,4628.00
2018-05-17T05:28:55.543Z,4796.00
2018-05-17T05:29:55.545Z,4844.00
2018-05-17T05:30:55.539Z,4796.00
2018-05-17T05:31:55.537Z,6288.00
2018-05-17T05:32:55.532Z,4944.00
2018-05-17T05:33:55.602Z,4876.00
2018-05-17T05:34:55.520Z,5020.00
2018-05-17T05:35:55.522Z,4776.00
2018-05-17T05:36:55.517Z,4572.00
2018-05-17T05:37:55.510Z,4340.00
2018-05-17T05:38:55.507Z,4408.00
2018-05-17T05:39:55.506Z,4272.00
2018-05-17T05:40:55.498Z,4128.00
2018-05-17T05:41:55.500Z,3992.00
2018-05-17T05:42:55.495Z,4012.00
2018-05-17T05:43:55.493Z,3604.00
2018-05-17T05:44:55.490Z,3632.00
2018-05-17T05:45:55.481Z,3804.00
2018-05-17T05:46:55.478Z,4112.00
2018-05-17T05:47:55.475Z,4464.00
2018-05-17T05:48:55.471Z,5148.00
2018-05-17T05:49:55.473Z,5444.00
2018-05-17T05:50:55.468Z,4952.00
2018-05-17T05:51:55.460Z,4472.00
2018-05-17T05:52:55.456Z,4976.00
2018-05-17T05:53:55.496Z,5844.00
2018-05-17T05:54:55.453Z,6852.00
2018-05-17T05:55:55.450Z,7712.00
2018-05-17T05:56:55.447Z,6292.00
2018-05-17T05:57:55.440Z,5504.00
2018-05-17T05:58:55.478Z,4968.00
2018-05-17T05:59:55.433Z,4948.00
2018-05-17T06:00:55.430Z,5352.00
2018-05-17T06:01:55.431Z,5412.00
2018-05-17T06:02:55.428Z,5236.00
2018-05-17T06:03:55.424Z,6416.00
2018-05-17T06:04:55.422Z,7196.00
2018-05-17T06:05:55.419Z,7732.00
2018-05-17T06:06:55.410Z,8368.00
2018-05-17T06:07:55.412Z,9008.00
2018-05-17T06:08:55.409Z,8504.00
2018-05-17T06:09:55.402Z,8676.00
2018-05-17T06:10:55.398Z,8200.00
2018-05-17T06:11:55.395Z,8576.00
2018-05-17T06:12:55.393Z,8964.00
2018-05-17T06:13:55.395Z,8032.00
2018-05-17T06:14:55.390Z,7524.00
2018-05-17T06:15:55.389Z,6536.00
2018-05-17T06:16:55.387Z,7032.00
2018-05-17T06:17:55.380Z,7900.00
2018-05-17T06:18:55.376Z,8068.00
2018-05-17T06:19:55.374Z,7428.00
2018-05-17T06:20:55.372Z,7676.00
2018-05-17T06:21:55.375Z,6876.00
2018-05-17T06:22:55.372Z,6504.00
2018-05-17T06:23:55.364Z,5788.00
2018-05-17T06:24:55.362Z,5840.00
2018-05-17T06:25:55.365Z,5680.00
2018-05-17T06:26:55.363Z,5500.00
2018-05-17T06:27:55.360Z,5960.00
2018-05-17T06:28:55.359Z,13948.00
2018-05-17T06:29:55.352Z,6124.00
2018-05-17T06:30:55.349Z,6336.00
2018-05-17T06:31:55.357Z,6976.00
2018-05-17T06:32:55.344Z,7256.00
2018-05-17T06:33:55.349Z,7568.00
2018-05-17T06:34:55.345Z,7944.00
2018-05-17T06:35:55.341Z,7324.00
2018-05-17T06:36:55.340Z,7304.00
2018-05-17T06:37:55.333Z,7328.00
2018-05-17T06:38:55.331Z,7308.00
2018-05-17T06:39:55.333Z,7264.00
2018-05-17T06:40:55.332Z,7444.00
2018-05-17T06:41:55.326Z,7852.00
2018-05-17T06:42:55.322Z,7976.00
2018-05-17T06:43:55.378Z,8528.00
2018-05-17T06:44:55.318Z,8844.00
2018-05-17T06:45:55.320Z,8784.00
2018-05-17T06:46:55.317Z,9076.00
2018-05-17T06:47:55.321Z,9464.00
2018-05-17T06:48:55.315Z,8676.00
2018-05-17T06:49:55.313Z,7920.00
2018-05-17T06:50:55.304Z,7636.00
2018-05-17T06:51:55.396Z,7468.00
2018-05-17T06:52:55.304Z,8424.00
2018-05-17T06:53:55.303Z,9300.00
2018-05-17T06:54:55.300Z,10520.00
2018-05-17T06:55:55.298Z,12048.00
2018-05-17T06:56:55.293Z,12088.00
2018-05-17T06:57:55.295Z,13120.00
2018-05-17T06:58:55.294Z,14292.00
2018-05-17T06:59:55.291Z,28992.00
2018-05-17T07:00:55.309Z,18496.00
2018-05-17T07:01:55.284Z,19712.00
2018-05-17T07:02:55.282Z,12008.00
2018-05-17T07:03:55.280Z,10144.00
2018-05-17T07:04:55.279Z,9496.00
2018-05-17T07:05:55.283Z,10252.00
2018-05-17T07:06:55.280Z,14084.00
2018-05-17T07:07:55.278Z,10112.00
2018-05-17T07:08:55.278Z,10276.00
2018-05-17T07:09:55.273Z,9952.00
2018-05-17T07:10:55.271Z,10144.00
2018-05-17T07:11:55.274Z,13008.00
2018-05-17T07:12:55.274Z,17984.00
2018-05-17T07:13:55.270Z,49344.00
2018-05-17T07:14:55.268Z,20768.00
2018-05-17T07:15:55.268Z,52544.00
2018-05-17T07:16:55.271Z,56064.00
2018-05-17T07:17:55.332Z,41312.00
2018-05-17T07:18:55.272Z,58272.00
2018-05-17T07:19:55.271Z,64992.00
2018-05-17T07:20:55.272Z,64736.00
2018-05-17T07:21:55.269Z,60800.00
2018-05-17T07:22:55.269Z,70336.00
2018-05-17T07:23:55.273Z,46848.00
2018-05-17T07:24:55.273Z,27552.00
2018-05-17T07:25:55.282Z,11656.00
2018-05-17T07:26:55.283Z,14336.00
2018-05-17T07:27:55.282Z,19872.00
2018-05-17T07:28:55.285Z,19680.00
2018-05-17T07:29:55.358Z,34912.00
2018-05-17T07:30:55.297Z,13104.00
2018-05-17T07:31:55.302Z,11520.00
2018-05-17T07:32:55.305Z,11892.00
2018-05-17T07:33:55.305Z,12852.00
2018-05-17T07:34:55.308Z,14460.00
2018-05-17T07:35:55.313Z,14824.00
2018-05-17T07:36:55.315Z,16960.00
2018-05-17T07:37:55.327Z,15012.00
2018-05-17T07:38:55.328Z,13924.00
2018-05-17T07:39:55.332Z,12944.00
2018-05-17T07:40:55.336Z,12956.00
2018-05-17T07:41:55.340Z,13268.00
2018-05-17T07:42:55.338Z,13120.00
2018-05-17T07:43:55.347Z,24480.00
2018-05-17T07:44:55.352Z,61792.00
2018-05-17T07:45:55.351Z,63712.00
2018-05-17T07:46:55.357Z,23808.00
2018-05-17T07:47:55.355Z,62432.00
2018-05-17T07:48:55.359Z,35904.00
2018-05-17T07:49:55.369Z,22752.00
2018-05-17T07:50:55.370Z,20608.00
2018-05-17T07:51:55.375Z,39648.00
2018-05-17T07:52:55.379Z,30976.00
2018-05-17T07:53:55.382Z,36096.00
2018-05-17T07:54:55.385Z,18240.00
2018-05-17T07:55:55.390Z,46272.00
2018-05-17T07:56:55.396Z,55488.00
2018-05-17T07:57:55.405Z,53568.00
2018-05-17T07:58:55.412Z,50016.00
2018-05-17T07:59:55.411Z,53184.00
2018-05-17T08:00:55.418Z,53216.00
2018-05-17T08:01:55.430Z,52544.00
2018-05-17T08:02:55.435Z,53248.00
2018-05-17T08:03:55.443Z,52896.00
2018-05-17T08:04:55.448Z,52096.00
2018-05-17T08:05:55.453Z,49824.00
2018-05-17T08:06:55.464Z,50112.00
2018-05-17T08:07:55.467Z,49632.00
2018-05-17T08:08:55.484Z,50816.00
2018-05-17T08:09:55.488Z,52672.00
2018-05-17T08:10:55.496Z,52640.00
2018-05-17T08:11:55.506Z,51840.00
2018-05-17T08:12:55.517Z,52448.00
2018-05-17T08:13:55.524Z,55200.00
2018-05-17T08:14:55.530Z,52928.00
2018-05-17T08:15:55.552Z,52352.00
2018-05-17T08:16:55.561Z,51744.00
2018-05-17T08:17:55.580Z,25440.00
2018-05-17T08:18:55.575Z,56288.00
2018-05-17T08:19:55.585Z,16384.00
2018-05-17T08:20:55.597Z,54432.00
2018-05-17T08:21:55.614Z,59296.00
2018-05-17T08:22:55.623Z,40768.00
2018-05-17T08:23:55.637Z,59936.00
2018-05-17T08:25:04.110Z,63776.00
2018-05-17T08:26:55.668Z,38464.00
2018-05-17T08:27:55.681Z,17152.00
2018-05-17T08:28:55.696Z,13756.00
2018-05-17T08:29:55.705Z,11652.00
2018-05-17T08:30:55.721Z,11760.00
2018-05-17T08:31:55.734Z,14124.00
2018-05-17T08:32:55.742Z,20416.00
2018-05-17T08:33:55.753Z,28704.00
2018-05-17T08:34:55.769Z,25760.00
2018-05-17T08:35:55.780Z,44960.00
2018-05-17T08:36:55.793Z,64480.00
2018-05-17T08:37:55.806Z,46784.00
2018-05-17T08:38:55.809Z,25664.00
2018-05-17T08:39:55.818Z,58336.00
2018-05-17T08:40:55.833Z,40768.00
2018-05-17T08:41:55.840Z,60608.00
2018-05-17T08:42:55.854Z,58784.00
2018-05-17T08:43:55.865Z,64384.00
2018-05-17T08:44:55.874Z,65792.00
2018-05-17T08:45:55.885Z,67968.00
2018-05-17T08:46:55.890Z,68192.00
2018-05-17T08:47:55.903Z,68384.00
2018-05-17T08:48:55.920Z,64608.00
2018-05-17T08:49:55.932Z,64736.00
2018-05-17T08:50:55.939Z,61952.00
2018-05-17T08:51:55.952Z,60800.00
2018-05-17T08:52:55.965Z,60768.00
2018-05-17T08:53:55.978Z,60128.00
2018-05-17T08:54:55.995Z,58400.00
2018-05-17T08:55:56.010Z,57952.00
2018-05-17T08:56:56.024Z,59488.00
2018-05-17T08:57:56.038Z,59776.00
2018-05-17T08:58:56.047Z,59232.00
2018-05-17T08:59:56.061Z,60736.00
2018-05-17T09:00:56.075Z,62112.00
2018-05-17T09:01:56.089Z,63872.00
2018-05-17T09:02:56.109Z,62880.00
2018-05-17T09:03:56.122Z,61024.00
2018-05-17T09:04:56.133Z,62752.00
2018-05-17T09:05:56.149Z,57696.00
2018-05-17T09:06:56.168Z,43744.00
2018-05-17T09:07:56.183Z,69536.00
2018-05-17T09:08:56.199Z,50496.00
2018-05-17T09:09:56.216Z,42624.00
2018-05-17T09:10:56.226Z,29920.00
2018-05-17T09:11:56.267Z,58080.00
2018-05-17T09:12:56.256Z,56832.00
2018-05-17T09:13:56.363Z,57472.00
2018-05-17T09:14:56.291Z,56352.00
2018-05-17T09:15:56.307Z,54976.00
2018-05-17T09:16:56.323Z,56064.00
2018-05-17T09:17:56.339Z,55040.00
2018-05-17T09:18:56.351Z,55712.00
2018-05-17T09:19:56.366Z,55776.00
2018-05-17T09:20:56.385Z,55616.00
2018-05-17T09:21:56.402Z,55712.00
2018-05-17T09:22:56.413Z,54208.00
2018-05-17T09:23:56.429Z,53088.00
2018-05-17T09:24:56.445Z,49216.00
2018-05-17T09:25:56.464Z,46880.00
2018-05-17T09:26:56.481Z,43904.00
2018-05-17T09:27:56.496Z,48512.00
2018-05-17T09:28:56.507Z,37184.00
2018-05-17T09:29:56.523Z,28032.00
2018-05-17T09:30:56.544Z,48992.00
2018-05-17T09:31:56.560Z,47104.00
2018-05-17T09:32:56.574Z,43456.00
2018-05-17T09:33:56.591Z,43680.00
2018-05-17T09:34:56.601Z,42656.00
2018-05-17T09:35:56.617Z,42336.00
2018-05-17T09:36:56.639Z,42432.00
2018-05-17T09:37:56.653Z,42464.00
2018-05-17T09:38:56.664Z,43104.00
2018-05-17T09:39:56.681Z,50080.00
2018-05-17T09:40:56.697Z,75168.00
2018-05-17T09:41:56.720Z,103552.00
2018-05-17T09:42:56.734Z,101088.00
2018-05-17T09:43:56.750Z,87328.00
2018-05-17T09:44:56.766Z,81888.00
2018-05-17T09:45:56.781Z,85664.00
2018-05-17T09:46:56.792Z,82720.00
2018-05-17T09:47:56.809Z,83456.00
2018-05-17T09:48:56.825Z,84960.00
2018-05-17T09:49:56.842Z,82080.00
2018-05-17T09:50:56.861Z,75872.00
2018-05-17T09:51:56.888Z,71040.00
2018-05-17T09:52:56.891Z,73984.00
2018-05-17T09:53:56.907Z,79136.00
2018-05-17T09:54:56.993Z,82304.00
2018-05-17T09:55:56.948Z,83456.00
2018-05-17T09:56:56.962Z,83520.00
2018-05-17T09:57:56.979Z,85792.00
2018-05-17T09:58:56.991Z,88032.00
2018-05-17T09:59:57.008Z,84992.00
2018-05-17T10:00:57.027Z,79936.00
2018-05-17T10:01:57.043Z,80192.00
2018-05-17T10:02:57.076Z,82368.00
2018-05-17T10:03:57.081Z,39072.00
2018-05-17T10:04:57.098Z,80768.00
2018-05-17T10:05:57.115Z,79744.00
2018-05-17T10:06:57.127Z,76768.00
2018-05-17T10:07:57.144Z,74112.00
2018-05-17T10:08:57.172Z,75072.00
2018-05-17T10:09:57.182Z,75936.00
2018-05-17T10:10:57.196Z,74688.00
2018-05-17T10:11:57.217Z,72128.00
2018-05-17T10:12:57.228Z,71040.00
2018-05-17T10:13:57.246Z,69344.00
2018-05-17T10:14:57.266Z,66336.00
2018-05-17T10:15:57.284Z,67040.00
2018-05-17T10:16:57.301Z,65120.00
2018-05-17T10:17:57.318Z,64128.00
2018-05-17T10:18:57.329Z,64576.00
2018-05-17T10:19:57.346Z,65568.00
2018-05-17T10:20:57.363Z,64576.00
2018-05-17T10:21:57.379Z,65184.00
2018-05-17T10:22:57.484Z,61984.00
2018-05-17T10:23:57.417Z,60768.00
2018-05-17T10:24:57.431Z,59520.00
2018-05-17T10:25:57.446Z,61280.00
2018-05-17T10:26:57.466Z,61504.00
2018-05-17T10:27:57.483Z,62336.00
2018-05-17T10:28:57.503Z,62080.00
2018-05-17T10:29:57.518Z,60160.00
2018-05-17T10:30:57.529Z,60160.00
2018-05-17T10:31:57.545Z,59648.00
2018-05-17T10:32:57.561Z,57984.00
2018-05-17T10:33:57.580Z,57472.00
2018-05-17T10:34:57.598Z,57216.00
2018-05-17T10:35:57.616Z,56384.00
2018-05-17T10:36:57.637Z,56320.00
2018-05-17T10:37:57.649Z,58976.00
2018-05-17T10:38:57.660Z,63200.00
2018-05-17T10:39:57.677Z,63776.00
2018-05-17T10:40:57.699Z,64160.00
2018-05-17T10:41:57.716Z,59200.00
2018-05-17T10:42:57.727Z,65088.00
2018-05-17T10:43:57.744Z,63264.00
2018-05-17T10:44:57.761Z,66336.00
2018-05-17T10:45:57.779Z,66432.00
2018-05-17T10:46:57.802Z,69696.00
2018-05-17T10:47:57.815Z,68032.00
2018-05-17T10:48:57.920Z,69312.00
2018-05-17T10:49:57.848Z,70720.00
2018-05-17T10:50:57.861Z,71072.00
2018-05-17T10:51:57.876Z,71200.00
2018-05-17T10:52:57.892Z,72224.00
2018-05-17T10:53:57.909Z,72672.00
2018-05-17T10:54:57.930Z,72928.00
2018-05-17T10:55:57.947Z,74496.00
2018-05-17T10:56:57.958Z,73728.00
2018-05-17T10:57:57.974Z,73760.00
2018-05-17T10:58:57.993Z,75328.00
2018-05-17T10:59:58.011Z,82976.00
2018-05-17T11:00:58.030Z,81472.00
2018-05-17T11:01:58.041Z,84928.00
2018-05-17T11:02:58.060Z,84096.00
2018-05-17T11:03:58.071Z,81408.00
2018-05-17T11:04:58.087Z,81632.00
2018-05-17T11:05:58.103Z,86432.00
2018-05-17T11:06:58.121Z,92832.00
2018-05-17T11:07:58.138Z,94080.00
2018-05-17T11:08:58.155Z,94208.00
2018-05-17T11:09:58.171Z,91040.00
2018-05-17T11:10:58.181Z,92352.00
2018-05-17T11:11:58.201Z,98752.00
2018-05-17T11:12:58.218Z,97664.00
2018-05-17T11:13:58.234Z,96576.00
2018-05-17T11:14:58.243Z,96032.00
2018-05-17T11:15:58.259Z,96128.00
2018-05-17T11:16:58.274Z,68128.00
2018-05-17T11:17:58.288Z,18784.00
2018-05-17T11:18:58.307Z,9556.00
2018-05-17T11:19:58.322Z,8480.00
2018-05-17T11:20:58.339Z,8264.00
2018-05-17T11:21:58.350Z,8164.00
2018-05-17T11:22:58.359Z,7960.00
2018-05-17T11:23:58.371Z,7720.00
2018-05-17T11:24:58.388Z,7504.00
2018-05-17T11:25:58.483Z,7412.00
2018-05-17T11:26:58.412Z,7392.00
2018-05-17T11:27:58.423Z,7268.00
2018-05-17T11:28:58.429Z,7104.00
2018-05-17T11:29:58.440Z,6924.00
2018-05-17T11:30:58.454Z,6828.00
2018-05-17T11:31:58.464Z,6756.00
2018-05-17T11:32:58.540Z,6760.00
2018-05-17T11:33:58.481Z,6724.00
2018-05-17T11:34:58.484Z,6672.00
2018-05-17T11:35:58.494Z,6596.00
2018-05-17T11:36:58.503Z,6488.00
2018-05-17T11:37:58.509Z,6420.00
2018-05-17T11:38:58.520Z,6344.00
2018-05-17T11:39:58.528Z,6324.00
2018-05-17T11:40:58.534Z,6384.00
2018-05-17T11:41:58.542Z,6448.00
2018-05-17T11:42:58.543Z,6500.00
2018-05-17T11:43:58.549Z,6464.00
2018-05-17T11:44:58.560Z,6496.00
2018-05-17T11:45:58.566Z,6616.00
2018-05-17T11:46:58.567Z,6564.00
2018-05-17T11:47:58.573Z,6456.00
2018-05-17T11:48:58.578Z,6392.00
2018-05-17T11:49:58.583Z,6376.00
2018-05-17T11:50:58.592Z,6208.00
2018-05-17T11:51:58.597Z,6184.00
2018-05-17T11:52:58.603Z,6120.00
2018-05-17T11:53:58.607Z,6036.00
2018-05-17T11:54:58.606Z,5960.00
2018-05-17T11:55:58.609Z,5852.00
2018-05-17T11:56:58.614Z,5680.00
2018-05-17T11:57:58.622Z,5628.00
2018-05-17T11:58:58.626Z,5632.00
2018-05-17T11:59:58.630Z,5588.00
2018-05-17T12:00:58.631Z,5556.00
2018-05-17T12:01:58.633Z,5536.00
2018-05-17T12:02:58.640Z,5496.00
2018-05-17T12:03:58.646Z,5448.00
2018-05-17T12:04:58.648Z,5424.00
2018-05-17T12:05:58.652Z,5384.00
2018-05-17T12:06:58.650Z,5440.00
2018-05-17T12:07:58.653Z,5492.00
2018-05-17T12:08:58.656Z,5456.00
2018-05-17T12:09:58.660Z,5404.00
2018-05-17T12:10:58.667Z,5404.00
2018-05-17T12:11:58.671Z,5296.00
2018-05-17T12:12:58.676Z,5160.00
2018-05-17T12:13:58.676Z,5124.00
2018-05-17T12:14:58.674Z,5044.00
2018-05-17T12:15:58.677Z,5052.00
2018-05-17T12:16:58.684Z,5100.00
2018-05-17T12:17:58.687Z,5068.00
2018-05-17T12:18:58.685Z,5024.00
2018-05-17T12:19:58.687Z,5028.00